Time;durP1;ratioP1;P1;durP2;ratioP2;P2;SDS_P1;SDS_P2;PMS_P1;PMS_P2;Temp;Humidity;BMP_temperature;BMP_pressure;BME280_temperature;BME280_humidity;BME280_pressure;Samples;Min_cycle;Max_cycle;Signal;HPM_P1;HPM_P2
2021/04/07 05:32:19;;;;;;;27.48;14.38;;;;;;;-0.25;70.93;99174.53;1741973;77;27255;-56
2021/04/07 05:34:46;;;;;;;29.85;15.50;;;;;;;-0.17;70.32;99181.20;1710041;83;25298;-56
2021/04/07 05:37:12;;;;;;;34.05;15.63;;;;;;;-0.03;70.42;99180.92;1709037;83;25602;-56
2021/04/07 05:39:39;;;;;;;32.93;15.58;;;;;;;0.08;70.37;99180.38;1743462;82;25502;-54
2021/04/07 05:42:07;;;;;;;31.90;16.30;;;;;;;0.20;70.03;99175.33;1744580;82;28072;-56
2021/04/07 05:44:33;;;;;;;29.42;14.55;;;;;;;0.23;69.62;99176.92;1744492;82;25520;-56
2021/04/07 05:47:00;;;;;;;25.92;14.58;;;;;;;0.33;69.71;99174.79;1744591;82;25297;-55
2021/04/07 05:49:28;;;;;;;27.48;16.32;;;;;;;0.35;69.59;99173.98;1744597;82;25302;-54
2021/04/07 05:51:55;;;;;;;28.32;14.78;;;;;;;0.41;69.54;99177.42;1744619;82;25323;-57
2021/04/07 05:54:21;;;;;;;29.12;15.83;;;;;;;0.46;69.47;99166.77;1744606;82;25723;-56
2021/04/07 05:56:48;;;;;;;28.45;14.47;;;;;;;0.55;69.47;99176.61;1744516;82;25312;-57
2021/04/07 05:59:14;;;;;;;23.20;13.25;;;;;;;0.60;69.11;99169.15;1744733;82;25462;-56
2021/04/07 06:01:41;;;;;;;21.57;14.25;;;;;;;0.58;69.13;99160.64;1744582;82;25289;-57
2021/04/07 06:04:07;;;;;;;27.25;14.38;;;;;;;0.57;68.89;99164.91;1744617;82;25475;-57
2021/04/07 06:06:34;;;;;;;22.05;13.18;;;;;;;0.55;69.19;99161.97;1744521;82;25723;-57
2021/04/07 06:09:00;;;;;;;22.87;14.73;;;;;;;0.57;68.94;99159.58;1744508;82;25319;-54
2021/04/07 06:11:27;;;;;;;24.00;13.98;;;;;;;0.59;69.03;99166.21;1744581;82;25429;-53
2021/04/07 06:13:53;;;;;;;25.48;14.10;;;;;;;0.66;69.04;99169.92;1744547;82;25278;-57
2021/04/07 06:16:19;;;;;;;23.02;13.22;;;;;;;0.79;69.31;99175.22;1744500;82;25493;-56
2021/04/07 06:18:47;;;;;;;31.42;15.50;;;;;;;0.91;69.23;99170.37;1744624;82;26165;-57
2021/04/07 06:21:14;;;;;;;26.85;14.85;;;;;;;0.93;68.90;99171.69;1723682;82;25301;-57
2021/04/07 06:23:41;;;;;;;25.60;15.35;;;;;;;0.98;68.70;99166.88;1724450;82;25347;-56
2021/04/07 06:26:10;;;;;;;25.32;14.43;;;;;;;1.05;68.60;99178.03;1724494;82;25471;-57
2021/04/07 06:28:46;;;;;;;23.25;13.35;;;;;;;1.10;68.50;99177.22;1713337;83;25646;-54
2021/04/07 06:31:19;;;;;;;23.18;13.72;;;;;;;1.18;68.54;99181.98;1724925;81;25808;-58
2021/04/07 06:33:48;;;;;;;21.35;13.38;;;;;;;1.21;68.19;99187.29;1720338;83;25670;-54
2021/04/07 06:36:15;;;;;;;23.70;14.25;;;;;;;1.28;68.30;99187.27;1704223;83;25694;-58
2021/04/07 06:38:41;;;;;;;25.80;13.70;;;;;;;1.34;68.03;99189.36;1686244;82;25579;-56
2021/04/07 06:41:09;;;;;;;24.23;13.83;;;;;;;1.45;68.12;99186.91;1692372;83;25490;-56
2021/04/07 06:43:37;;;;;;;21.17;13.83;;;;;;;1.48;67.68;99190.88;1680538;85;25793;-54
2021/04/07 06:46:05;;;;;;;23.40;13.90;;;;;;;1.46;67.30;99193.03;1680479;84;25354;-56
2021/04/07 06:48:32;;;;;;;28.67;15.13;;;;;;;1.56;67.57;99194.30;1680524;85;25633;-57
2021/04/07 06:51:02;;;;;;;24.35;13.98;;;;;;;1.62;67.36;99193.75;1680524;85;25336;-57
2021/04/07 06:53:29;;;;;;;26.93;15.55;;;;;;;1.62;67.30;99199.09;1680621;85;25535;-57
2021/04/07 06:55:56;;;;;;;30.50;15.58;;;;;;;1.61;67.06;99204.14;1680584;85;25728;-56
2021/04/07 06:58:23;;;;;;;26.57;15.72;;;;;;;1.61;67.25;99212.14;1680732;84;25758;-58
2021/04/07 07:00:49;;;;;;;32.40;16.27;;;;;;;1.63;67.23;99208.66;1707376;84;25637;-58
2021/04/07 07:03:18;;;;;;;24.75;13.72;;;;;;;1.57;67.16;99213.77;1708927;84;25427;-58
2021/04/07 07:05:49;;;;;;;28.83;16.23;;;;;;;1.51;67.25;99220.20;1709100;84;25460;-57
2021/04/07 07:08:18;;;;;;;27.95;15.72;;;;;;;1.46;67.35;99217.02;1708949;84;25788;-57
2021/04/07 07:10:51;;;;;;;26.82;16.07;;;;;;;1.44;67.29;99224.49;1709098;83;25275;-57
2021/04/07 07:13:24;;;;;;;26.15;16.25;;;;;;;1.34;67.31;99218.66;1708946;84;25473;-58
2021/04/07 07:15:52;;;;;;;26.55;16.37;;;;;;;1.35;67.41;99229.59;1708981;83;25486;-57
2021/04/07 07:18:22;;;;;;;22.10;14.53;;;;;;;1.35;67.48;99237.59;1709048;84;25568;-58
2021/04/07 07:20:49;;;;;;;25.08;14.53;;;;;;;1.29;67.48;99241.34;1708975;83;25729;-57
2021/04/07 07:23:31;;;;;;;24.12;14.50;;;;;;;1.20;67.68;99242.98;1709015;84;25522;-57
2021/04/07 07:26:08;;;;;;;24.65;13.93;;;;;;;1.12;67.35;99250.98;1709124;83;25317;-57
2021/04/07 07:28:51;;;;;;;22.13;13.80;;;;;;;1.08;67.47;99255.27;1708926;84;25286;-57
2021/04/07 07:31:30;;;;;;;25.10;14.15;;;;;;;1.09;67.69;99260.33;1710304;83;25530;-57
2021/04/07 07:34:04;;;;;;;24.00;13.20;;;;;;;1.09;67.67;99264.84;1716506;83;25777;-57
2021/04/07 07:36:33;;;;;;;24.00;13.40;;;;;;;1.07;67.76;99265.14;1716504;83;25281;-58
2021/04/07 07:39:01;;;;;;;24.07;12.80;;;;;;;1.06;67.74;99267.53;1716632;83;25503;-57
2021/04/07 07:41:35;;;;;;;22.27;13.75;;;;;;;1.06;67.84;99270.73;1716595;83;25663;-56
2021/04/07 07:44:06;;;;;;;23.92;14.50;;;;;;;1.13;68.07;99271.23;1696347;83;25493;-56
2021/04/07 07:46:36;;;;;;;24.72;15.18;;;;;;;1.21;67.91;99273.86;1716627;83;25772;-57
2021/04/07 07:49:19;;;;;;;22.42;14.25;;;;;;;1.26;67.87;99278.66;1716632;83;26088;-56
2021/04/07 07:51:49;;;;;;;22.75;13.58;;;;;;;1.30;67.83;99289.57;1716736;83;25567;-56
2021/04/07 07:54:20;;;;;;;28.80;15.93;;;;;;;1.22;67.50;99287.45;1716483;83;25462;-56
2021/04/07 07:56:49;;;;;;;18.67;12.45;;;;;;;1.14;67.40;99290.13;1720814;82;25474;-55
2021/04/07 07:59:30;;;;;;;;;;;;;;;1.09;67.63;99297.63;1741477;81;25731;-56
2021/04/07 08:01:58;;;;;;;17.87;11.55;;;;;;;1.00;67.58;99293.11;1739211;81;25282;-57
2021/04/07 08:04:26;;;;;;;20.75;11.53;;;;;;;0.93;67.60;99306.70;1702762;83;25604;-57
2021/04/07 08:06:53;;;;;;;20.05;11.80;;;;;;;0.86;68.35;99300.31;1737969;81;25712;-58
2021/04/07 08:09:19;;;;;;;16.42;10.25;;;;;;;0.80;68.48;99297.92;1718305;82;25547;-56
2021/04/07 08:11:47;;;;;;;14.85;9.90;;;;;;;0.78;68.28;99301.40;1737114;82;25715;-55
2021/04/07 08:14:17;;;;;;;16.05;9.53;;;;;;;0.77;68.28;99306.45;1709022;84;25862;-53
2021/04/07 08:16:45;;;;;;;;;;;;;;;0.74;68.64;99311.78;1722000;83;25487;-57
2021/04/07 08:19:14;;;;;;;18.07;9.63;;;;;;;0.73;68.35;99307.52;1719127;83;25544;-57
2021/04/07 08:21:46;;;;;;;13.55;8.88;;;;;;;0.78;68.39;99314.70;1708278;84;25603;-57
2021/04/07 08:24:13;;;;;;;15.20;9.80;;;;;;;0.77;68.45;99319.24;1719158;83;25728;-57
2021/04/07 08:26:42;;;;;;;19.62;10.25;;;;;;;0.79;68.29;99320.31;1708076;84;25535;-58
2021/04/07 08:29:09;;;;;;;13.93;9.47;;;;;;;0.82;68.32;99320.56;1691201;83;25611;-58
2021/04/07 08:31:38;;;;;;;19.50;10.00;;;;;;;0.90;68.52;99320.55;1709949;83;25535;-57
2021/04/07 08:34:09;;;;;;;16.25;10.25;;;;;;;0.96;68.28;99324.02;1744314;82;25555;-56
2021/04/07 08:36:41;;;;;;;16.42;9.35;;;;;;;1.01;68.31;99323.47;1709906;83;25810;-57
2021/04/07 08:39:12;;;;;;;15.28;9.23;;;;;;;1.07;68.12;99320.25;1786519;80;25607;-57
2021/04/07 08:41:41;;;;;;;15.18;8.63;;;;;;;1.09;67.90;99328.25;1784961;80;25580;-57
2021/04/07 08:44:09;;;;;;;15.23;8.83;;;;;;;1.18;67.88;99319.72;1786634;80;25269;-55
2021/04/07 08:46:50;;;;;;;20.15;9.70;;;;;;;1.27;67.87;99316.75;1786837;80;25606;-55
2021/04/07 08:49:39;;;;;;;20.23;10.30;;;;;;;1.29;67.54;99320.75;1786691;80;25779;-55
2021/04/07 08:52:24;;;;;;;15.40;7.80;;;;;;;1.33;67.45;99320.19;1786919;80;25563;-57
2021/04/07 08:54:57;;;;;;;14.75;9.63;;;;;;;1.39;67.48;99324.44;1786849;80;25538;-59
2021/04/07 08:57:33;;;;;;;16.42;8.80;;;;;;;1.51;67.42;99330.25;1785910;80;25515;-58
2021/04/07 09:00:12;;;;;;;18.05;8.68;;;;;;;1.66;67.25;99325.41;1785690;80;25336;-59
2021/04/07 09:02:57;;;;;;;15.95;7.28;;;;;;;1.79;66.73;99324.82;1786834;80;25779;-57
2021/04/07 09:05:36;;;;;;;13.15;8.03;;;;;;;1.83;66.08;99327.19;1786561;80;25456;-56
2021/04/07 09:08:05;;;;;;;15.00;8.60;;;;;;;1.92;65.98;99323.95;1786813;80;25479;-58
2021/04/07 09:10:47;;;;;;;15.30;8.03;;;;;;;2.00;65.95;99320.16;1786778;80;25581;-56
2021/04/07 09:13:22;;;;;;;12.50;8.45;;;;;;;2.07;65.56;99321.74;1786681;80;25498;-58
2021/04/07 09:16:03;;;;;;;10.82;7.92;;;;;;;2.13;65.09;99319.28;1734062;82;25712;-57
2021/04/07 09:18:44;;;;;;;11.83;7.87;;;;;;;2.16;65.12;99323.56;1733831;82;25467;-56
2021/04/07 09:21:21;;;;;;;14.28;9.55;;;;;;;2.18;65.08;99330.74;1734065;82;25582;-55
2021/04/07 09:24:00;;;;;;;14.38;8.88;;;;;;;2.22;64.57;99334.44;1786636;80;25531;-57
2021/04/07 09:26:28;;;;;;;13.25;7.83;;;;;;;2.20;64.09;99337.14;1786320;80;25530;-56
2021/04/07 09:28:56;;;;;;;12.00;7.70;;;;;;;2.18;64.24;99333.41;1786696;80;25697;-58
2021/04/07 09:31:28;;;;;;;15.53;8.55;;;;;;;2.25;64.40;99331.77;1786598;80;25481;-57
2021/04/07 09:33:57;;;;;;;25.05;12.88;;;;;;;2.29;64.31;99333.34;1744580;79;25506;-56
2021/04/07 09:36:29;;;;;;;15.50;8.48;;;;;;;2.32;64.28;99332.80;1767775;80;25346;-57
2021/04/07 09:38:59;;;;;;;13.48;7.97;;;;;;;2.35;64.35;99331.70;1714334;83;25346;-57
2021/04/07 09:41:29;;;;;;;13.72;8.68;;;;;;;2.37;63.90;99325.55;1700017;83;27126;-57
2021/04/07 09:43:57;;;;;;;14.15;8.25;;;;;;;2.36;63.97;99331.94;1705188;82;26127;-56
2021/04/07 09:46:24;;;;;;;12.98;7.90;;;;;;;2.42;64.31;99332.18;1736823;82;25626;-56
2021/04/07 09:49:00;;;;;;;12.28;8.25;;;;;;;2.55;64.04;99335.28;1707554;83;25651;-58
2021/04/07 09:51:46;;;;;;;15.18;8.93;;;;;;;2.66;64.10;99336.02;1708056;84;25442;-55
2021/04/07 09:54:24;;;;;;;13.70;8.65;;;;;;;2.69;63.53;99336.25;1707424;84;26558;-57
2021/04/07 09:57:06;;;;;;;15.32;8.38;;;;;;;2.78;64.26;99330.56;1708274;84;25398;-56
2021/04/07 09:59:52;;;;;;;13.83;8.63;;;;;;;2.94;63.94;99328.53;1708196;84;25682;-57
2021/04/07 10:02:27;;;;;;;17.30;7.55;;;;;;;3.24;64.42;99324.53;1708737;84;25379;-58
2021/04/07 10:04:56;;;;;;;12.40;8.25;;;;;;;4.34;62.58;99329.01;1704803;83;25302;-56
2021/04/07 10:07:28;;;;;;;9.38;6.97;;;;;;;4.95;61.55;99334.72;1677266;84;26718;-57
2021/04/07 10:09:57;;;;;;;12.68;7.35;;;;;;;5.24;59.61;99341.19;1668299;83;25586;-57
2021/04/07 10:12:27;;;;;;;10.80;7.70;;;;;;;5.59;59.09;99340.80;1667592;83;25649;-56
2021/04/07 10:14:59;;;;;;;13.08;6.95;;;;;;;5.75;58.59;99336.70;1663547;86;25262;-57
2021/04/07 10:17:36;;;;;;;10.63;7.22;;;;;;;5.85;57.49;99338.37;1663587;85;25653;-56
2021/04/07 10:20:16;;;;;;;11.33;6.70;;;;;;;5.84;55.35;99334.12;1663605;86;25778;-57
2021/04/07 10:22:46;;;;;;;10.13;5.97;;;;;;;5.57;55.40;99338.97;1663658;86;25535;-56
2021/04/07 10:27:50;;;;;;;9.95;6.90;;;;;;;5.18;53.47;99341.58;1849208;76;34598;-55
2021/04/07 10:30:23;;;;;;;11.28;6.55;;;;;;;5.05;54.95;99337.77;1819162;78;25645;-56
2021/04/07 10:32:55;;;;;;;10.65;6.55;;;;;;;5.30;55.61;99333.84;1819233;78;26679;-57
2021/04/07 10:35:26;;;;;;;12.70;7.42;;;;;;;5.38;54.33;99339.86;1825598;77;25544;-54
2021/04/07 10:38:01;;;;;;;11.63;7.05;;;;;;;5.71;56.45;99341.09;1841285;77;25691;-57
2021/04/07 10:40:34;;;;;;;9.28;6.45;;;;;;;6.46;55.86;99328.77;1768273;80;25506;-58
2021/04/07 10:43:15;;;;;;;11.33;6.47;;;;;;;7.08;54.67;99340.13;1799753;79;25657;-58
2021/04/07 10:46:05;;;;;;;9.28;5.42;;;;;;;7.08;53.18;99339.60;1778155;80;26554;-58
2021/04/07 10:48:32;;;;;;;;;;;;;;;6.85;52.51;99336.70;1802077;79;25551;-56
2021/04/07 10:50:59;;;;;;;11.12;6.55;;;;;;;6.63;51.73;99335.60;1799519;79;25546;-56
2021/04/07 10:53:37;;;;;;;9.53;6.00;;;;;;;6.40;52.55;99344.19;1799700;79;25532;-57
2021/04/07 10:56:22;;;;;;;8.73;6.42;;;;;;;6.13;51.54;99344.53;1799879;79;25567;-57
2021/04/07 10:59:03;;;;;;;10.93;6.10;;;;;;;5.79;51.26;99349.78;1768287;79;25803;-56
2021/04/07 11:01:37;;;;;;;10.93;6.87;;;;;;;5.60;52.46;99349.08;1758629;81;25665;-56
2021/04/07 11:04:14;;;;;;;11.53;7.15;;;;;;;5.53;52.92;99349.47;1754466;81;25706;-57
2021/04/07 11:06:42;;;;;;;14.05;7.20;;;;;;;5.50;53.56;99342.57;1783829;79;26121;-57
2021/04/07 11:09:14;;;;;;;8.98;5.83;;;;;;;5.35;52.20;99351.17;1765480;79;25533;-59
2021/04/07 11:11:43;;;;;;;9.28;5.47;;;;;;;5.23;52.51;99343.61;1769973;80;25697;-57
2021/04/07 11:14:11;;;;;;;14.00;6.72;;;;;;;5.16;52.88;99353.11;1770119;80;25564;-57
2021/04/07 11:16:38;;;;;;;9.10;6.00;;;;;;;5.50;54.85;99347.41;1769828;81;25524;-55
2021/04/07 11:19:16;;;;;;;7.67;5.72;;;;;;;6.87;55.29;99346.59;1769890;81;25600;-54
2021/04/07 11:21:44;;;;;;;7.20;4.90;;;;;;;7.92;52.82;99331.66;1739596;81;25669;-56
2021/04/07 11:24:11;;;;;;;8.63;5.22;;;;;;;8.67;51.41;99327.48;1769459;81;25959;-57
2021/04/07 11:26:38;;;;;;;7.65;5.53;;;;;;;9.11;49.82;99331.45;1771044;80;25619;-57
2021/04/07 11:29:07;;;;;;;10.90;5.75;;;;;;;9.67;47.70;99330.81;1773019;80;25688;-57
2021/04/07 11:31:35;;;;;;;8.75;5.17;;;;;;;9.39;47.99;99329.11;1774159;80;25562;-57
2021/04/07 11:34:05;;;;;;;5.42;4.00;;;;;;;9.23;46.60;99336.14;1774091;80;25552;-56
2021/04/07 11:39:22;;;;;;;9.00;5.35;;;;;;;8.59;46.43;99335.02;1773315;80;25532;-56
2021/04/07 11:46:47;;;;;;;7.50;4.62;;;;;;;7.72;45.41;99343.80;1761808;80;25520;-58
2021/04/07 11:49:14;;;;;;;7.12;4.78;;;;;;;7.24;45.19;99341.89;1746700;80;25819;-58
2021/04/07 11:51:41;;;;;;;9.05;5.30;;;;;;;6.76;45.62;99343.89;1741317;82;26219;-56
2021/04/07 11:54:12;;;;;;;6.85;4.47;;;;;;;6.47;46.72;99344.58;1741418;82;25647;-58
2021/04/07 11:56:45;;;;;;;7.40;4.80;;;;;;;6.34;47.74;99348.89;1746257;80;25607;-58
2021/04/07 11:59:24;;;;;;;5.87;4.37;;;;;;;6.30;48.52;99339.86;1752697;80;25558;-57
2021/04/07 12:01:57;;;;;;;6.70;4.42;;;;;;;6.35;48.77;99351.02;1742404;81;25711;-56
2021/04/07 12:07:01;;;;;;;6.27;5.23;;;;;;;6.33;49.29;99349.19;1834913;76;28719;-56
2021/04/07 12:09:28;;;;;;;9.85;5.37;;;;;;;6.28;49.00;99351.99;1820583;78;25598;-57
2021/04/07 12:11:55;;;;;;;7.55;5.40;;;;;;;6.16;48.85;99336.41;1821185;78;25774;-57
2021/04/07 12:14:21;;;;;;;8.25;5.92;;;;;;;6.24;49.79;99344.31;1789221;78;25524;-58
2021/04/07 12:16:49;;;;;;;6.05;5.17;;;;;;;6.41;50.27;99326.98;1821801;78;25549;-59
2021/04/07 12:19:18;;;;;;;10.10;6.12;;;;;;;6.82;51.14;99336.75;1819512;77;25419;-58
2021/04/07 12:21:45;;;;;;;15.18;7.45;;;;;;;7.18;49.99;99337.17;1806281;79;25284;-58
2021/04/07 12:24:12;;;;;;;9.43;6.42;;;;;;;7.70;48.89;99343.31;1805630;78;25941;-57
2021/04/07 12:26:42;;;;;;;12.35;6.87;;;;;;;7.57;47.68;99340.97;1803994;78;25640;-58
2021/04/07 12:29:10;;;;;;;10.32;6.35;;;;;;;7.39;47.93;99324.52;1797801;77;25442;-58
2021/04/07 12:31:38;;;;;;;8.18;6.20;;;;;;;7.71;47.25;99329.30;1816059;78;25549;-56
2021/04/07 12:34:05;;;;;;;8.03;5.50;;;;;;;7.85;46.92;99327.29;1744029;81;25718;-59
2021/04/07 12:36:32;;;;;;;15.13;7.33;;;;;;;8.09;46.97;99326.84;1750658;81;27982;-57
2021/04/07 12:39:03;;;;;;;7.70;5.85;;;;;;;8.14;46.83;99332.08;1748936;81;25665;-57
2021/04/07 12:41:48;;;;;;;7.95;5.53;;;;;;;7.91;45.96;99328.70;1746378;81;25594;-57
2021/04/07 12:44:05;;;;;;;8.25;6.12;;;;;;;7.83;46.90;99326.25;1756227;81;25558;-57
2021/04/07 12:46:32;;;;;;;7.95;5.83;;;;;;;7.68;46.52;99329.39;1741743;81;25858;-57
2021/04/07 12:48:59;;;;;;;6.92;4.87;;;;;;;7.67;46.97;99319.72;1745860;81;25717;-55
2021/04/07 12:51:26;;;;;;;7.28;5.30;;;;;;;7.60;45.60;99322.86;1763544;81;25506;-57
2021/04/07 12:53:53;;;;;;;7.03;5.47;;;;;;;7.59;45.29;99332.03;1762123;80;25535;-54
2021/04/07 12:56:21;;;;;;;9.48;6.00;;;;;;;7.69;47.16;99328.27;1748024;81;25306;-55
2021/04/07 12:58:49;;;;;;;8.63;5.20;;;;;;;7.74;47.73;99328.11;1755253;80;25560;-55
2021/04/07 13:01:18;;;;;;;7.58;5.60;;;;;;;7.76;45.78;99323.77;1757657;80;26418;-57
2021/04/07 13:03:44;;;;;;;9.30;4.90;;;;;;;7.57;46.90;99327.52;1775212;80;25316;-56
2021/04/07 13:06:11;;;;;;;7.20;5.72;;;;;;;7.48;46.92;99321.33;1790095;80;25364;-54
2021/04/07 13:08:41;;;;;;;8.20;5.25;;;;;;;7.26;46.54;99316.25;1764662;80;25348;-53
2021/04/07 13:11:09;;;;;;;7.08;5.25;;;;;;;7.03;47.51;99321.44;1778398;80;25481;-56
2021/04/07 13:13:35;;;;;;;8.18;5.60;;;;;;;6.78;47.39;99321.00;1749031;82;25786;-56
2021/04/07 13:16:02;;;;;;;10.08;5.80;;;;;;;6.59;47.91;99325.77;1749018;81;25551;-55
2021/04/07 13:18:30;;;;;;;8.40;5.62;;;;;;;6.40;48.39;99313.86;1752679;80;25595;-53
2021/04/07 13:23:42;;;;;;;7.55;5.47;;;;;;;7.20;50.57;99324.23;1880434;74;34734;-53
2021/04/07 13:26:12;;;;;;;8.20;5.42;;;;;;;7.52;49.42;99324.19;1837928;76;25497;-56
2021/04/07 13:28:39;;;;;;;7.22;5.25;;;;;;;7.70;48.13;99323.69;1825832;78;25683;-54
2021/04/07 13:31:05;;;;;;;5.65;4.65;;;;;;;7.70;47.55;99323.69;1825842;77;25498;-55
2021/04/07 13:33:37;;;;;;;7.22;4.83;;;;;;;7.71;46.96;99328.73;1825943;77;25507;-56
2021/04/07 13:43:46;;;;;;;6.08;4.42;;;;;;;7.53;47.50;99339.23;1825824;78;25459;-55
2021/04/07 13:46:16;;;;;;;10.85;5.65;;;;;;;7.47;47.45;99328.61;1825868;78;25578;-55
2021/04/07 13:48:43;;;;;;;7.97;5.72;;;;;;;7.56;48.18;99338.06;1825898;78;25537;-54
2021/04/07 13:51:14;;;;;;;8.20;5.70;;;;;;;7.58;48.60;99341.78;1825865;77;25552;-55
2021/04/07 13:53:41;;;;;;;8.50;5.53;;;;;;;7.69;48.68;99347.67;1825889;78;26876;-55
2021/04/07 13:56:11;;;;;;;9.43;5.30;;;;;;;7.82;48.58;99349.45;1825839;77;25609;-55
2021/04/07 13:58:37;;;;;;;6.42;4.50;;;;;;;7.94;48.41;99358.27;1825929;78;25498;-53
2021/04/07 14:01:05;;;;;;;5.70;4.33;;;;;;;7.99;47.76;99347.34;1842816;75;25552;-57
2021/04/07 14:03:31;;;;;;;4.58;4.08;;;;;;;8.00;47.09;99375.31;1843886;77;25605;-53
2021/04/07 14:05:58;;;;;;;5.85;4.08;;;;;;;7.99;47.63;99344.66;1853818;76;25699;-55
2021/04/07 14:08:26;;;;;;;6.87;4.47;;;;;;;7.96;47.08;99346.63;1849755;76;25811;-55
2021/04/07 14:10:53;;;;;;;6.70;4.22;;;;;;;7.91;47.28;99356.98;1830230;77;25560;-57
2021/04/07 14:13:19;;;;;;;7.78;4.75;;;;;;;7.76;47.62;99348.00;1855898;76;25855;-56
2021/04/07 14:15:46;;;;;;;7.87;5.25;;;;;;;7.61;47.82;99351.91;1867045;76;25546;-55
2021/04/07 14:18:12;;;;;;;7.42;5.33;;;;;;;7.49;48.71;99357.88;1880179;76;25691;-58
2021/04/07 14:20:41;;;;;;;6.25;4.37;;;;;;;7.46;48.80;99358.52;1880008;76;25327;-54
2021/04/07 14:23:08;;;;;;;8.33;4.97;;;;;;;7.20;47.68;99347.63;1798207;79;25473;-56
2021/04/07 14:25:36;;;;;;;8.00;4.83;;;;;;;6.90;47.53;99348.11;1784529;79;26142;-56
2021/04/07 14:28:03;;;;;;;5.15;4.33;;;;;;;6.63;48.27;99349.59;1785064;79;25581;-53
2021/04/07 14:30:40;;;;;;;6.05;4.75;;;;;;;6.43;48.91;99352.98;1784984;79;25810;-53
2021/04/07 14:33:02;;;;;;;7.33;5.00;;;;;;;6.26;49.20;99354.98;1788350;78;25603;-53
2021/04/07 14:35:29;;;;;;;7.15;4.90;;;;;;;6.07;49.69;99359.71;1798766;78;25284;-53
2021/04/07 14:37:55;;;;;;;8.05;4.53;;;;;;;5.92;50.40;99359.45;1806848;79;25632;-56
2021/04/07 14:40:22;;;;;;;8.30;5.33;;;;;;;5.77;50.78;99365.39;1795582;79;25585;-55
2021/04/07 14:42:49;;;;;;;6.83;5.20;;;;;;;5.63;51.83;99367.82;1792918;80;25707;-57
2021/04/07 14:45:18;;;;;;;10.80;6.35;;;;;;;5.47;52.70;99393.59;1792877;80;25592;-56
2021/04/07 14:47:47;;;;;;;10.28;6.62;;;;;;;5.21;53.28;99377.16;1793145;80;25651;-57
2021/04/07 14:50:19;;;;;;;9.53;6.58;;;;;;;5.01;54.14;99382.34;1792870;80;25457;-56
2021/04/07 14:52:44;;;;;;;11.00;6.75;;;;;;;4.83;55.38;99396.81;1792162;80;25641;-55
2021/04/07 14:55:12;;;;;;;9.63;5.65;;;;;;;4.73;55.62;99417.61;1761859;80;25802;-56
2021/04/07 14:57:42;;;;;;;7.83;4.42;;;;;;;4.56;57.60;99430.97;1793100;80;25330;-53
2021/04/07 15:00:10;;;;;;;6.92;4.50;;;;;;;4.19;58.67;99439.77;1792092;80;25521;-57
2021/04/07 15:02:39;;;;;;;10.50;5.30;;;;;;;3.80;58.77;99444.25;1789908;79;25557;-56
2021/04/07 15:05:09;;;;;;;10.48;6.05;;;;;;;3.49;60.01;99440.55;1765619;80;25484;-56
2021/04/07 15:07:36;;;;;;;10.43;6.10;;;;;;;3.21;60.94;99448.03;1770021;80;25801;-56
2021/04/07 15:10:11;;;;;;;9.43;6.87;;;;;;;2.94;61.67;99446.08;1773604;80;25489;-51
2021/04/07 15:12:38;;;;;;;13.78;8.03;;;;;;;2.73;62.74;99448.10;1772396;78;25578;-55
2021/04/07 15:15:07;;;;;;;12.47;9.15;;;;;;;2.55;63.45;99444.20;1779963;80;25598;-55
2021/04/07 15:17:33;;;;;;;;;;;;;;;2.36;64.28;99440.58;1782929;80;25557;-56
2021/04/07 15:20:02;;;;;;;10.35;7.65;;;;;;;2.17;67.68;99441.20;1780144;80;25715;-55
2021/04/07 15:22:32;;;;;;;13.55;8.93;;;;;;;2.02;66.06;99454.60;1779727;80;25581;-54
2021/04/07 15:24:58;;;;;;;11.97;8.43;;;;;;;1.93;65.96;99452.24;1779838;80;25530;-54
2021/04/07 15:30:02;;;;;;;16.43;11.70;;;;;;;1.81;67.88;99454.66;1800054;78;28236;-57
2021/04/07 15:32:29;;;;;;;9.63;8.08;;;;;;;1.74;67.29;99454.16;1742143;82;25489;-56
2021/04/07 15:34:56;;;;;;;12.85;8.48;;;;;;;1.76;68.71;99446.69;1742172;82;25790;-56
2021/04/07 15:37:22;;;;;;;11.70;7.80;;;;;;;1.71;68.50;99456.03;1741773;82;25701;-56
2021/04/07 15:39:49;;;;;;;11.20;7.25;;;;;;;1.67;69.10;99444.31;1741889;82;25390;-55
2021/04/07 15:42:15;;;;;;;11.08;7.35;;;;;;;1.60;69.36;99447.27;1771041;80;25464;-56
2021/04/07 15:44:41;;;;;;;11.95;7.47;;;;;;;1.58;69.65;99444.05;1788699;80;25617;-52
2021/04/07 15:47:08;;;;;;;11.38;6.92;;;;;;;1.59;69.83;99448.86;1775122;79;25994;-52
2021/04/07 15:49:35;;;;;;;10.53;5.53;;;;;;;1.57;70.25;99447.80;1756599;79;25797;-52
2021/04/07 15:54:57;;;;;;;14.35;9.18;;;;;;;1.58;71.00;99465.91;1821681;76;31253;-57
2021/04/07 15:57:28;;;;;;;14.53;7.05;;;;;;;1.55;70.83;99465.11;1819195;78;25544;-56
2021/04/07 16:00:00;;;;;;;12.95;7.00;;;;;;;1.56;71.96;99465.39;1818083;78;25749;-54
2021/04/07 16:02:27;;;;;;;11.90;6.55;;;;;;;1.52;71.01;99456.34;1819216;78;25592;-53
2021/04/07 16:04:53;;;;;;;9.63;6.90;;;;;;;1.49;71.19;99457.12;1796322;78;25525;-57
2021/04/07 16:07:19;;;;;;;13.72;5.60;;;;;;;1.41;70.81;99443.01;1756596;77;25520;-57
2021/04/07 16:09:47;;;;;;;9.68;6.10;;;;;;;1.47;71.22;99455.27;1810630;77;25498;-55
2021/04/07 16:12:14;;;;;;;9.75;6.20;;;;;;;1.48;71.56;99456.06;1824631;77;27043;-54
2021/04/07 16:14:41;;;;;;;10.82;6.67;;;;;;;1.51;71.48;99454.73;1831986;77;25547;-51
2021/04/07 16:17:08;;;;;;;11.80;5.85;;;;;;;1.53;71.23;99449.38;1852675;77;25520;-54
2021/04/07 16:19:37;;;;;;;8.35;5.45;;;;;;;1.55;71.39;99455.78;1819741;77;25963;-56
2021/04/07 16:22:05;;;;;;;10.72;6.55;;;;;;;1.53;71.37;99454.72;1852442;77;25475;-56
2021/04/07 16:24:32;;;;;;;10.38;6.05;;;;;;;1.50;71.11;99456.61;1852679;77;25750;-55
2021/04/07 16:26:59;;;;;;;11.00;6.12;;;;;;;1.49;70.92;99459.79;1852638;77;26205;-52
2021/04/07 16:29:26;;;;;;;11.75;5.65;;;;;;;1.48;70.92;99468.88;1852411;77;25600;-57
2021/04/07 16:31:54;;;;;;;8.78;5.45;;;;;;;1.44;71.82;99478.45;1816327;77;25524;-56
2021/04/07 16:34:20;;;;;;;11.97;5.70;;;;;;;1.39;72.11;99482.45;1852701;77;25487;-56
2021/04/07 16:36:48;;;;;;;7.40;5.25;;;;;;;1.34;71.92;99486.45;1852378;77;25678;-54
2021/04/07 16:39:14;;;;;;;8.25;5.25;;;;;;;1.28;72.28;99492.87;1852665;77;25474;-57
2021/04/07 16:41:41;;;;;;;11.83;5.83;;;;;;;1.25;72.90;99486.73;1852798;77;25494;-58
2021/04/07 16:44:08;;;;;;;9.68;5.22;;;;;;;1.22;72.74;99484.59;1852448;77;25572;-58
2021/04/07 16:46:36;;;;;;;9.20;5.08;;;;;;;1.18;72.69;99490.20;1852878;77;25410;-57
2021/04/07 16:49:04;;;;;;;10.30;5.95;;;;;;;1.16;72.87;99485.66;1852655;77;28014;-57
2021/04/07 16:51:31;;;;;;;9.63;5.67;;;;;;;1.14;72.91;99478.47;1800330;77;26497;-54
2021/04/07 16:53:59;;;;;;;10.15;5.95;;;;;;;1.10;73.03;99484.86;1804073;77;25654;-57
2021/04/07 16:56:25;;;;;;;8.68;5.95;;;;;;;1.05;72.97;99484.86;1804721;77;26597;-56
2021/04/07 16:58:52;;;;;;;10.15;6.25;;;;;;;1.03;72.83;99483.00;1784627;80;26015;-56
2021/04/07 17:01:18;;;;;;;16.35;7.60;;;;;;;1.00;72.90;99478.98;1784590;80;25702;-57
2021/04/07 17:03:46;;;;;;;17.32;7.75;;;;;;;0.95;73.32;99481.64;1784815;80;26092;-53
2021/04/07 17:06:16;;;;;;;13.70;8.10;;;;;;;0.91;73.15;99480.05;1784569;80;26114;-57
2021/04/07 17:08:42;;;;;;;16.10;7.87;;;;;;;0.89;73.16;99482.72;1784908;80;25565;-57
2021/04/07 17:11:08;;;;;;;17.30;7.75;;;;;;;0.85;73.27;99481.13;1785106;80;25523;-57
2021/04/07 17:13:35;;;;;;;16.20;8.18;;;;;;;0.79;73.66;99473.39;1785710;80;25890;-56
2021/04/07 17:16:01;;;;;;;13.55;9.28;;;;;;;0.73;73.63;99472.56;1786314;80;25281;-56
2021/04/07 17:18:28;;;;;;;16.23;8.93;;;;;;;0.68;73.70;99480.02;1786277;80;25435;-57
2021/04/07 17:20:55;;;;;;;14.43;9.05;;;;;;;0.61;74.17;99482.66;1792549;78;25520;-56
2021/04/07 17:23:22;;;;;;;19.48;9.98;;;;;;;0.53;74.82;99479.98;1799638;78;25593;-57
2021/04/07 17:25:50;;;;;;;18.50;10.65;;;;;;;0.48;74.83;99493.28;1785323;80;25764;-57
2021/04/07 17:28:18;;;;;;;15.90;10.65;;;;;;;0.43;75.03;99482.08;1800329;77;25733;-57
2021/04/07 17:30:45;;;;;;;17.98;11.15;;;;;;;0.39;74.52;99479.66;1799954;78;25545;-57
2021/04/07 17:33:14;;;;;;;20.82;10.55;;;;;;;0.35;74.97;99482.04;1785629;80;25542;-57
2021/04/07 17:35:43;;;;;;;18.85;11.12;;;;;;;0.33;75.26;99486.83;1788537;77;25604;-57
2021/04/07 17:38:21;;;;;;;;;;;;;;;0.28;75.61;99490.80;1803797;77;25864;-55
2021/04/07 17:40:49;;;;;;;19.82;11.75;;;;;;;0.26;75.84;99494.80;1797274;77;25584;-57
2021/04/07 17:43:18;;;;;;;19.82;11.48;;;;;;;0.23;75.54;99490.78;1808615;78;25553;-57
2021/04/07 17:45:46;;;;;;;20.17;12.53;;;;;;;0.20;75.96;99497.94;1795989;78;25603;-57